Aviation Digital Data Service (ADDS)

Output produced by METARs form (2018 UTC 22 November 2017)
found at http://aviationweather.gov/adds/metars/
 
KALB 221720Z 2218/2318 30009KT P6SM VCSH SCT025 BKN040 
     TEMPO 2218/2222 BKN025 
     FM222200 31011G21KT P6SM BKN040 
     FM230100 32011KT P6SM SCT250 
     FM230600 31007KT P6SM FEW035 FEW200